createdAt,value
2022-08-19T00:01:43.937Z,5.80
2022-08-19T00:04:14.368Z,6.03
2022-08-19T00:06:44.186Z,6.37
2022-08-19T00:09:14.802Z,5.82
2022-08-19T00:11:42.760Z,6.43
2022-08-19T00:14:13.731Z,6.70
2022-08-19T00:16:42.248Z,7.03
2022-08-19T00:19:10.608Z,6.30
2022-08-19T00:21:40.366Z,6.50
2022-08-19T00:24:09.930Z,6.43
2022-08-19T00:26:38.495Z,6.62
2022-08-19T00:29:08.214Z,6.28
2022-08-19T00:31:36.640Z,6.62
2022-08-19T00:34:04.071Z,6.47
2022-08-19T00:36:32.903Z,6.95
2022-08-19T00:39:00.754Z,6.18
2022-08-19T00:41:29.035Z,6.62
2022-08-19T00:44:08.553Z,6.80
2022-08-19T00:46:38.320Z,6.22
2022-08-19T00:49:23.882Z,6.37
2022-08-19T00:52:02.347Z,6.45
2022-08-19T00:54:32.361Z,6.37
2022-08-19T00:57:00.868Z,6.70
2022-08-19T01:00:00.752Z,6.80
2022-08-19T01:02:17.609Z,6.87
2022-08-19T01:04:45.171Z,6.25
2022-08-19T01:07:15.859Z,6.93
2022-08-19T01:09:47.638Z,6.50
2022-08-19T01:12:15.506Z,6.60
2022-08-19T01:14:43.110Z,6.82
2022-08-19T01:17:11.302Z,6.53
2022-08-19T01:19:44.043Z,6.35
2022-08-19T01:22:20.061Z,6.57
2022-08-19T01:24:53.086Z,5.68
2022-08-19T01:27:22.951Z,6.47
2022-08-19T01:29:52.302Z,6.45
2022-08-19T01:32:33.140Z,6.97
2022-08-19T01:35:03.322Z,6.70
2022-08-19T01:37:43.167Z,6.65
2022-08-19T01:40:11.453Z,6.50
2022-08-19T01:42:38.871Z,6.47
2022-08-19T01:45:08.408Z,6.72
2022-08-19T01:47:37.287Z,6.32
2022-08-19T01:50:07.003Z,6.05
2022-08-19T01:52:36.931Z,6.12
2022-08-19T01:55:07.219Z,6.32
2022-08-19T01:57:34.971Z,6.25
2022-08-19T02:00:05.059Z,6.25
2022-08-19T02:02:39.250Z,6.50
2022-08-19T02:05:11.288Z,6.18
2022-08-19T02:10:16.506Z,6.22
2022-08-19T02:12:44.863Z,6.50
2022-08-19T02:15:12.817Z,6.55
2022-08-19T02:17:40.848Z,5.82
2022-08-19T02:20:09.259Z,6.40
2022-08-19T02:22:36.967Z,6.37
2022-08-19T02:25:06.169Z,6.95
2022-08-19T02:27:34.379Z,6.05
2022-08-19T02:30:02.209Z,7.18
2022-08-19T02:32:31.398Z,6.47
2022-08-19T02:34:58.775Z,6.45
2022-08-19T02:37:52.791Z,6.57
2022-08-19T02:40:20.310Z,6.87
2022-08-19T02:42:47.947Z,6.12
2022-08-19T02:45:15.523Z,6.82
2022-08-19T02:47:43.701Z,6.93
2022-08-19T02:50:11.335Z,6.32
2022-08-19T02:52:38.677Z,6.65
2022-08-19T02:55:06.827Z,7.18
2022-08-19T02:57:35.137Z,7.20
2022-08-19T03:00:06.096Z,7.12
2022-08-19T03:02:33.675Z,6.13
2022-08-19T03:05:00.996Z,6.50
2022-08-19T03:07:28.359Z,6.25
2022-08-19T03:09:55.935Z,6.45
2022-08-19T03:12:23.315Z,6.15
2022-08-19T03:14:51.893Z,6.22
2022-08-19T03:17:19.917Z,6.20
2022-08-19T03:19:47.269Z,7.35
2022-08-19T03:22:15.032Z,6.72
2022-08-19T03:24:42.727Z,6.53
2022-08-19T03:27:10.706Z,6.85
2022-08-19T03:29:43.205Z,6.95
2022-08-19T03:32:31.714Z,7.07
2022-08-19T03:34:59.017Z,6.10
2022-08-19T03:37:27.131Z,6.57
2022-08-19T03:39:54.733Z,6.75
2022-08-19T03:42:38.394Z,6.30
2022-08-19T03:45:11.380Z,6.60
2022-08-19T03:47:39.026Z,7.12
2022-08-19T03:50:06.824Z,7.05
2022-08-19T03:52:34.428Z,6.40
2022-08-19T03:55:01.795Z,6.50
2022-08-19T03:57:31.993Z,6.82
2022-08-19T04:00:13.024Z,7.07
2022-08-19T04:02:42.899Z,7.20
2022-08-19T04:05:29.999Z,6.62
2022-08-19T04:10:29.219Z,7.53
2022-08-19T04:12:56.609Z,6.37
2022-08-19T04:15:24.214Z,7.10
2022-08-19T04:17:51.531Z,6.65
2022-08-19T04:20:18.922Z,6.65
2022-08-19T04:22:46.533Z,7.22
2022-08-19T04:25:14.004Z,7.30
2022-08-19T04:27:44.310Z,7.20
2022-08-19T04:30:12.715Z,7.15
2022-08-19T04:32:40.046Z,7.60
2022-08-19T04:35:16.986Z,7.22
2022-08-19T04:37:46.314Z,6.93
2022-08-19T04:40:32.292Z,7.62
2022-08-19T04:42:59.887Z,6.97
2022-08-19T04:45:27.244Z,7.03
2022-08-19T04:48:19.521Z,6.68
2022-08-19T04:50:45.827Z,7.35
2022-08-19T04:53:13.244Z,7.15
2022-08-19T04:55:42.555Z,6.90
2022-08-19T04:58:10.154Z,7.05
2022-08-19T05:00:39.758Z,7.00
2022-08-19T05:03:07.770Z,6.68
2022-08-19T05:05:44.816Z,6.75
2022-08-19T05:08:15.168Z,7.05
2022-08-19T05:10:43.137Z,6.87
2022-08-19T05:13:11.759Z,7.10
2022-08-19T05:15:39.109Z,6.40
2022-08-19T05:18:25.043Z,6.62
2022-08-19T05:21:11.063Z,6.50
2022-08-19T05:23:38.831Z,7.00
2022-08-19T05:26:06.191Z,6.93
2022-08-19T05:28:33.570Z,7.00
2022-08-19T05:31:01.184Z,6.43
2022-08-19T05:33:28.785Z,7.32
2022-08-19T05:35:56.983Z,6.07
2022-08-19T05:38:24.563Z,6.75
2022-08-19T05:40:51.976Z,6.47
2022-08-19T05:43:19.337Z,6.70
2022-08-19T05:45:47.002Z,6.75
2022-08-19T05:48:15.070Z,6.28
2022-08-19T05:50:42.667Z,6.20
2022-08-19T05:53:10.370Z,6.00
2022-08-19T05:55:39.530Z,6.32
2022-08-19T05:58:08.528Z,6.10
2022-08-19T06:00:37.484Z,6.07
2022-08-19T06:03:12.566Z,6.30
2022-08-19T06:05:46.155Z,6.22
2022-08-19T06:08:20.567Z,6.30
2022-08-19T06:11:18.512Z,5.87
2022-08-19T06:13:48.533Z,6.37
2022-08-19T06:16:23.393Z,6.12
2022-08-19T06:18:52.593Z,5.95
2022-08-19T06:21:25.166Z,5.90
2022-08-19T06:23:53.128Z,6.25
2022-08-19T06:26:21.092Z,5.78
2022-08-19T06:28:49.032Z,6.32
2022-08-19T06:31:19.484Z,5.82
2022-08-19T06:33:47.489Z,6.12
2022-08-19T06:36:32.414Z,5.73
2022-08-19T06:39:00.360Z,5.90
2022-08-19T06:41:28.285Z,6.35
2022-08-19T06:43:56.476Z,5.65
2022-08-19T06:46:24.290Z,6.25
2022-08-19T06:48:54.343Z,6.10
2022-08-19T06:51:22.770Z,5.70
2022-08-19T06:53:52.916Z,5.97
2022-08-19T06:56:25.815Z,6.30
2022-08-19T06:58:53.802Z,5.87
2022-08-19T07:01:21.487Z,5.72
2022-08-19T07:03:48.874Z,6.00
2022-08-19T07:06:43.645Z,5.75
2022-08-19T07:09:10.955Z,5.35
2022-08-19T07:11:39.801Z,5.80
2022-08-19T07:14:07.490Z,6.53
2022-08-19T07:16:49.508Z,5.55
2022-08-19T07:19:18.922Z,5.90
2022-08-19T07:21:53.607Z,5.82
2022-08-19T07:24:25.457Z,6.15
2022-08-19T07:26:55.879Z,5.87
2022-08-19T07:29:25.675Z,6.22
2022-08-19T07:31:57.396Z,6.03
2022-08-19T07:34:29.399Z,5.60
2022-08-19T07:36:57.576Z,5.87
2022-08-19T07:39:30.920Z,5.70
2022-08-19T07:42:00.148Z,5.75
2022-08-19T07:44:27.502Z,5.78
2022-08-19T07:46:57.269Z,6.47
2022-08-19T07:49:25.162Z,5.47
2022-08-19T07:51:58.348Z,5.78
2022-08-19T07:54:27.972Z,5.15
2022-08-19T07:56:55.456Z,6.28
2022-08-19T07:59:23.656Z,5.85
2022-08-19T08:01:52.004Z,6.07
2022-08-19T08:04:38.450Z,5.35
2022-08-19T08:07:25.412Z,5.65
2022-08-19T08:10:00.644Z,5.43
2022-08-19T08:12:42.160Z,5.70
2022-08-19T08:15:17.360Z,5.68
2022-08-19T08:17:49.341Z,5.22
2022-08-19T08:20:17.769Z,5.00
2022-08-19T08:23:05.313Z,5.57
2022-08-19T08:25:34.429Z,5.25
2022-08-19T08:28:03.611Z,5.50
2022-08-19T08:30:33.739Z,5.37
2022-08-19T08:33:02.512Z,4.75
2022-08-19T08:35:30.152Z,4.70
2022-08-19T08:37:57.770Z,4.82
2022-08-19T08:40:35.388Z,5.78
2022-08-19T08:43:06.065Z,5.20
2022-08-19T08:45:53.566Z,5.15
2022-08-19T08:48:42.948Z,5.10
2022-08-19T08:51:20.119Z,4.78
2022-08-19T08:53:49.870Z,4.75
2022-08-19T08:56:24.024Z,5.03
2022-08-19T08:58:57.371Z,5.35
2022-08-19T09:01:29.046Z,5.62
2022-08-19T09:04:02.860Z,5.47
2022-08-19T09:06:41.805Z,5.25
2022-08-19T09:09:18.859Z,5.20
2022-08-19T09:11:52.472Z,4.85
2022-08-19T09:14:52.336Z,4.62
2022-08-19T09:17:29.165Z,5.00
2022-08-19T09:20:11.278Z,4.72
2022-08-19T09:22:40.222Z,4.53
2022-08-19T09:25:09.792Z,5.03
2022-08-19T09:27:43.027Z,5.07
2022-08-19T09:30:32.453Z,4.80
2022-08-19T09:33:00.385Z,4.90
2022-08-19T09:35:29.816Z,5.20
2022-08-19T09:37:59.537Z,5.07
2022-08-19T09:40:30.015Z,5.22
2022-08-19T09:43:01.052Z,5.28
2022-08-19T09:45:28.672Z,5.18
2022-08-19T09:47:57.237Z,4.87
2022-08-19T09:50:25.231Z,5.45
2022-08-19T09:52:57.311Z,4.65
2022-08-19T09:55:31.840Z,5.15
2022-08-19T09:58:01.624Z,4.97
2022-08-19T10:00:29.817Z,4.72
2022-08-19T10:02:57.478Z,5.57
2022-08-19T10:05:43.492Z,5.87
2022-08-19T10:08:13.649Z,5.37
2022-08-19T10:10:46.657Z,5.45
2022-08-19T10:13:17.813Z,5.90
2022-08-19T10:15:47.627Z,5.90
2022-08-19T10:18:19.083Z,5.70
2022-08-19T10:20:51.723Z,5.37
2022-08-19T10:23:21.645Z,5.37
2022-08-19T10:25:49.835Z,5.43
2022-08-19T10:28:19.163Z,5.18
2022-08-19T10:30:48.327Z,5.62
2022-08-19T10:33:16.132Z,4.68
2022-08-19T10:36:10.669Z,5.82
2022-08-19T10:38:38.346Z,5.60
2022-08-19T10:41:12.017Z,5.50
2022-08-19T10:43:40.829Z,6.05
2022-08-19T10:46:14.072Z,5.47
2022-08-19T10:48:44.645Z,5.45
2022-08-19T10:51:31.747Z,5.70
2022-08-19T10:54:00.229Z,5.80
2022-08-19T10:56:47.501Z,5.90
2022-08-19T10:59:15.649Z,5.90
2022-08-19T11:01:45.888Z,5.85
2022-08-19T11:04:14.696Z,5.85
2022-08-19T11:06:44.368Z,5.75
2022-08-19T11:09:12.588Z,6.10
2022-08-19T11:11:42.740Z,7.12
2022-08-19T11:14:12.020Z,9.75
2022-08-19T11:16:43.185Z,10.23
2022-08-19T11:19:12.635Z,9.10
2022-08-19T11:21:42.439Z,8.75
2022-08-19T11:24:13.279Z,11.38
2022-08-19T11:26:41.850Z,11.73
2022-08-19T11:29:12.403Z,13.95
2022-08-19T11:31:42.301Z,15.80
2022-08-19T11:34:13.134Z,16.50
2022-08-19T11:36:43.599Z,14.77
2022-08-19T11:39:12.908Z,13.02
2022-08-19T11:41:41.267Z,11.73
2022-08-19T11:44:10.048Z,12.35
2022-08-19T11:46:38.557Z,11.50
2022-08-19T11:49:10.658Z,11.05
2022-08-19T11:51:43.776Z,12.13
2022-08-19T11:54:11.896Z,11.90
2022-08-19T11:56:39.760Z,12.88
2022-08-19T11:59:12.778Z,13.77
2022-08-19T12:01:43.482Z,14.57
2022-08-19T12:04:11.568Z,15.20
2022-08-19T12:06:40.375Z,15.48
2022-08-19T12:09:10.246Z,15.65
2022-08-19T12:11:39.360Z,15.07
2022-08-19T12:14:07.420Z,14.07
2022-08-19T12:16:36.277Z,12.45
2022-08-19T12:19:06.473Z,12.77
2022-08-19T12:21:36.210Z,13.18
2022-08-19T12:24:05.323Z,12.60
2022-08-19T12:26:52.548Z,12.68
2022-08-19T12:29:23.798Z,11.95
2022-08-19T12:31:52.153Z,10.48
2022-08-19T12:34:21.021Z,9.85
2022-08-19T12:36:50.267Z,11.52
2022-08-19T12:39:18.297Z,10.82
2022-08-19T12:41:54.204Z,7.75
2022-08-19T12:44:29.349Z,5.55
2022-08-19T12:46:59.888Z,5.07
2022-08-19T12:49:53.364Z,4.87
2022-08-19T12:52:19.882Z,4.60
2022-08-19T12:54:53.822Z,4.82
2022-08-19T12:57:27.042Z,4.70
2022-08-19T13:00:13.390Z,5.18
2022-08-19T13:02:42.409Z,4.78
2022-08-19T13:05:12.075Z,4.82
2022-08-19T13:07:40.477Z,4.68
2022-08-19T13:10:10.109Z,4.60
2022-08-19T13:12:37.725Z,4.80
2022-08-19T13:15:10.541Z,4.43
2022-08-19T13:17:40.108Z,4.70
2022-08-19T13:20:09.340Z,4.45
2022-08-19T13:22:37.300Z,5.03
2022-08-19T13:25:06.654Z,4.80
2022-08-19T13:27:34.548Z,4.50
2022-08-19T13:30:21.462Z,4.60
2022-08-19T13:33:11.912Z,4.57
2022-08-19T13:35:40.975Z,4.50
2022-08-19T13:38:11.748Z,4.70
2022-08-19T13:40:42.516Z,4.80
2022-08-19T13:43:13.493Z,5.57
2022-08-19T13:45:53.523Z,4.65
2022-08-19T13:48:21.268Z,4.10
2022-08-19T13:50:49.074Z,4.05
2022-08-19T13:53:16.708Z,3.75
2022-08-19T13:55:44.757Z,3.67
2022-08-19T13:58:12.880Z,3.40
2022-08-19T14:00:43.376Z,4.10
2022-08-19T14:03:11.389Z,3.70
2022-08-19T14:05:39.203Z,3.78
2022-08-19T14:08:06.591Z,3.40
2022-08-19T14:10:34.686Z,3.28
2022-08-19T14:13:03.924Z,4.12
2022-08-19T14:15:31.934Z,3.37
2022-08-19T14:17:59.591Z,3.17
2022-08-19T14:20:27.287Z,3.12
2022-08-19T14:22:55.712Z,3.10
2022-08-19T14:25:27.170Z,3.20
2022-08-19T14:27:55.059Z,2.35
2022-08-19T14:30:29.157Z,2.40
2022-08-19T14:32:58.992Z,1.87
2022-08-19T14:35:28.297Z,2.30
2022-08-19T14:37:56.050Z,2.50
2022-08-19T14:40:26.847Z,2.17
2022-08-19T14:43:00.308Z,3.05
2022-08-19T14:45:29.047Z,2.40
2022-08-19T14:47:56.763Z,2.40
2022-08-19T14:50:24.321Z,2.87
2022-08-19T14:53:00.554Z,2.58
2022-08-19T14:55:28.415Z,2.30
2022-08-19T14:57:55.860Z,2.35
2022-08-19T15:00:25.716Z,2.30
2022-08-19T15:02:55.504Z,2.17
2022-08-19T15:05:23.190Z,2.22
2022-08-19T15:07:50.757Z,2.30
2022-08-19T15:10:18.535Z,2.20
2022-08-19T15:12:49.829Z,2.10
2022-08-19T15:15:19.841Z,2.10
2022-08-19T15:17:47.423Z,2.20
2022-08-19T15:20:17.978Z,2.75
2022-08-19T15:22:46.205Z,2.70
2022-08-19T15:25:16.634Z,2.53
2022-08-19T15:27:44.175Z,2.33
2022-08-19T15:30:12.556Z,2.00
2022-08-19T15:32:40.193Z,2.62
2022-08-19T15:35:08.324Z,2.05
2022-08-19T15:37:37.627Z,2.20
2022-08-19T15:40:07.528Z,2.50
2022-08-19T15:42:38.756Z,1.95
2022-08-19T15:45:08.108Z,2.50
2022-08-19T15:47:36.340Z,2.20
2022-08-19T15:50:17.486Z,2.53
2022-08-19T15:52:49.716Z,2.58
2022-08-19T15:55:32.872Z,2.17
2022-08-19T15:58:29.873Z,2.72
2022-08-19T16:01:21.553Z,3.10
2022-08-19T16:04:14.503Z,2.78
2022-08-19T16:06:50.005Z,2.67
2022-08-19T16:09:24.891Z,2.87
2022-08-19T16:11:56.780Z,2.83
2022-08-19T16:14:25.317Z,2.65
2022-08-19T16:16:53.972Z,2.90
2022-08-19T16:19:21.339Z,3.15
2022-08-19T16:21:51.250Z,3.53
2022-08-19T16:24:21.544Z,3.30
2022-08-19T16:26:49.564Z,3.92
2022-08-19T16:29:25.830Z,2.97
2022-08-19T16:32:04.657Z,3.22
2022-08-19T16:34:32.420Z,3.92
2022-08-19T16:37:01.083Z,2.30
2022-08-19T16:39:28.985Z,2.78
2022-08-19T16:41:56.340Z,3.08
2022-08-19T16:44:23.909Z,2.97
2022-08-19T16:46:58.806Z,3.53
2022-08-19T16:49:53.749Z,2.47
2022-08-19T16:52:18.879Z,3.10
2022-08-19T16:54:47.147Z,3.10
2022-08-19T16:57:14.703Z,3.40
2022-08-19T16:59:44.141Z,3.25
2022-08-19T17:02:20.423Z,3.35
2022-08-19T17:04:58.383Z,3.30
2022-08-19T17:07:32.266Z,2.60
2022-08-19T17:10:02.212Z,2.50
2022-08-19T17:12:32.228Z,2.20
2022-08-19T17:15:01.288Z,2.92
2022-08-19T17:17:30.250Z,2.53
2022-08-19T17:19:59.369Z,2.80
2022-08-19T17:22:27.061Z,2.03
2022-08-19T17:24:56.131Z,2.17
2022-08-19T17:27:31.314Z,3.30
2022-08-19T17:30:02.360Z,2.58
2022-08-19T17:32:30.881Z,2.55
2022-08-19T17:34:58.756Z,2.35
2022-08-19T17:37:26.419Z,2.55
2022-08-19T17:39:53.953Z,3.35
2022-08-19T17:42:21.774Z,2.70
2022-08-19T17:44:50.730Z,2.75
2022-08-19T17:47:19.525Z,2.90
2022-08-19T17:49:47.036Z,2.95
2022-08-19T17:52:14.696Z,2.58
2022-08-19T17:54:42.011Z,3.28
2022-08-19T17:57:09.592Z,2.83
2022-08-19T17:59:37.573Z,2.60
2022-08-19T18:02:06.774Z,2.67
2022-08-19T18:04:36.821Z,2.90
2022-08-19T18:07:04.520Z,2.90
2022-08-19T18:09:41.306Z,3.22
2022-08-19T18:12:12.090Z,3.78
2022-08-19T18:14:39.879Z,2.95
2022-08-19T18:17:12.376Z,3.65
2022-08-19T18:19:43.127Z,3.20
2022-08-19T18:22:29.070Z,2.53
2022-08-19T18:24:58.231Z,2.87
2022-08-19T18:27:27.038Z,3.65
2022-08-19T18:29:59.255Z,3.25
2022-08-19T18:32:33.060Z,3.55
2022-08-19T18:35:01.869Z,4.60
2022-08-19T18:37:29.461Z,5.05
2022-08-19T18:40:15.326Z,3.90
2022-08-19T18:43:05.238Z,3.58
2022-08-19T18:45:51.265Z,3.72
2022-08-19T18:48:37.843Z,5.25
2022-08-19T18:51:05.227Z,5.95
2022-08-19T18:53:34.899Z,5.72
2022-08-19T18:56:02.451Z,6.87
2022-08-19T18:58:33.801Z,7.28
2022-08-19T19:01:10.517Z,6.72
2022-08-19T19:03:42.491Z,6.60
2022-08-19T19:06:10.128Z,6.82
2022-08-19T19:08:38.924Z,7.25
2022-08-19T19:11:08.435Z,6.65
2022-08-19T19:13:37.419Z,6.47
2022-08-19T19:16:04.941Z,6.65
2022-08-19T19:18:34.239Z,6.72
2022-08-19T19:21:01.835Z,6.80
2022-08-19T19:23:29.191Z,6.55
2022-08-19T19:25:56.576Z,6.45
2022-08-19T19:28:28.638Z,6.40
2022-08-19T19:31:00.132Z,5.78
2022-08-19T19:33:27.936Z,4.82
2022-08-19T19:35:55.448Z,5.53
2022-08-19T19:38:22.820Z,5.60
2022-08-19T19:40:50.413Z,5.45
2022-08-19T19:43:18.215Z,5.53
2022-08-19T19:45:46.739Z,5.50
2022-08-19T19:48:16.180Z,6.37
2022-08-19T19:50:45.029Z,4.87
2022-08-19T19:53:15.009Z,5.28
2022-08-19T19:55:43.105Z,5.35
2022-08-19T19:58:10.446Z,4.97
2022-08-19T20:00:37.916Z,5.68
2022-08-19T20:03:06.301Z,4.78
2022-08-19T20:05:33.625Z,5.57
2022-08-19T20:08:19.658Z,3.62
2022-08-19T20:10:47.439Z,3.78
2022-08-19T20:13:15.604Z,4.22
2022-08-19T20:15:45.885Z,4.45
2022-08-19T20:18:14.649Z,5.97
2022-08-19T20:20:42.950Z,6.72
2022-08-19T20:23:10.331Z,5.82
2022-08-19T20:25:38.815Z,6.25
2022-08-19T20:28:06.417Z,6.18
2022-08-19T20:30:33.889Z,6.60
2022-08-19T20:33:04.619Z,6.05
2022-08-19T20:35:32.806Z,6.70
2022-08-19T20:38:03.714Z,6.85
2022-08-19T20:40:32.222Z,7.70
2022-08-19T20:42:59.619Z,7.87
2022-08-19T20:45:33.693Z,7.93
2022-08-19T20:48:03.406Z,8.32
2022-08-19T20:50:35.726Z,8.10
2022-08-19T20:53:15.196Z,9.27
2022-08-19T20:55:44.842Z,8.95
2022-08-19T20:58:13.432Z,9.02
2022-08-19T21:00:42.017Z,8.45
2022-08-19T21:03:09.655Z,9.63
2022-08-19T21:05:37.027Z,9.57
2022-08-19T21:08:04.579Z,9.38
2022-08-19T21:10:32.578Z,8.68
2022-08-19T21:12:59.975Z,9.85
2022-08-19T21:15:27.317Z,9.30
2022-08-19T21:17:55.053Z,9.90
2022-08-19T21:20:22.861Z,9.68
2022-08-19T21:22:50.564Z,9.65
2022-08-19T21:25:18.245Z,9.98
2022-08-19T21:27:45.561Z,9.52
2022-08-19T21:30:13.314Z,9.50
2022-08-19T21:32:40.980Z,9.38
2022-08-19T21:35:08.392Z,9.70
2022-08-19T21:37:36.323Z,9.77
2022-08-19T21:40:05.306Z,9.18
2022-08-19T21:42:32.680Z,8.35
2022-08-19T21:45:00.204Z,8.85
2022-08-19T21:47:27.815Z,8.25
2022-08-19T21:49:55.335Z,7.97
2022-08-19T21:52:23.915Z,7.97
2022-08-19T21:54:51.936Z,8.25
2022-08-19T21:57:19.272Z,9.32
2022-08-19T21:59:46.596Z,8.05
2022-08-19T22:02:20.420Z,8.15
2022-08-19T22:04:53.171Z,8.30
2022-08-19T22:07:21.940Z,8.43
2022-08-19T22:09:50.444Z,8.88
2022-08-19T22:12:37.560Z,9.48
2022-08-19T22:15:09.020Z,8.27
2022-08-19T22:17:36.424Z,8.83
2022-08-19T22:20:05.686Z,9.45
2022-08-19T22:22:34.257Z,8.95
2022-08-19T22:25:13.884Z,9.38
2022-08-19T22:28:01.762Z,8.45
2022-08-19T22:30:33.707Z,9.68
2022-08-19T22:35:31.936Z,8.75
2022-08-19T22:38:00.039Z,9.25
2022-08-19T22:40:29.667Z,9.05
2022-08-19T22:42:59.941Z,8.70
2022-08-19T22:45:28.326Z,8.50
2022-08-19T22:47:55.983Z,8.43
2022-08-19T22:50:23.778Z,8.35
2022-08-19T22:52:59.011Z,8.02
2022-08-19T22:55:27.572Z,7.60
2022-08-19T22:57:56.143Z,8.68
2022-08-19T23:00:25.975Z,8.85
2022-08-19T23:02:54.463Z,7.70
2022-08-19T23:05:24.522Z,7.47
2022-08-19T23:07:52.523Z,8.20
2022-08-19T23:10:26.547Z,8.57
2022-08-19T23:12:59.101Z,9.05
2022-08-19T23:15:29.748Z,6.90
2022-08-19T23:17:59.978Z,7.45
2022-08-19T23:20:29.935Z,7.37
2022-08-19T23:22:58.016Z,6.75
2022-08-19T23:25:31.249Z,6.35
2022-08-19T23:28:17.859Z,6.50
2022-08-19T23:30:47.655Z,7.80
2022-08-19T23:33:24.277Z,6.97
2022-08-19T23:36:00.598Z,5.80
2022-08-19T23:38:30.145Z,5.90
2022-08-19T23:40:58.988Z,7.12
2022-08-19T23:43:29.625Z,6.20
2022-08-19T23:45:59.044Z,6.50
2022-08-19T23:48:31.236Z,5.72
2022-08-19T23:51:00.449Z,5.97
2022-08-19T23:53:27.790Z,6.22
2022-08-19T23:55:55.934Z,6.22
2022-08-19T23:58:23.811Z,6.65
